Aérodrome :
LOGIN :

S'inscrire | Disclaimer

   EN    FR    IT 

 










Légende :    VFR   VFR Marginal   IFR   IFR Intensif   IFR Très Intensif
Visi : 
Plafond : 
>= 8 km
>= 3000ft
5 à 8 km
1000 à 3000 ft
1500m à 5 km
500 à 1000 ft
800 à 1500m
200 à 500 ft
< 800m
< 200 ft
Symboles :   Orages  Brouillard  Fortes neiges  Fortes précipitations  Vent > 20 kt
SIGMETs :   Divers  Orages  Givrage  Turbulence  Onde Orograph.  Cendres Volcan.






- Altitude de l'aérodrome : 616 ft
- Code IATA : PUF


LFBP - Pau

DERNIER METAR :
  • 220730Z AUTO VRB03KT CAVOK 05/01 Q0998 NOSIG

METARs EXPIRÉS :
  • 220700Z AUTO 11006KT CAVOK 04/00 Q0998 NOSIG
  • 220630Z AUTO 14006KT 100V160 CAVOK 05/00 Q0999 NOSIG
  • 220600Z AUTO 12008KT CAVOK 05/00 Q0999 NOSIG
  • 220530Z AUTO 10007KT 070V130 CAVOK 05/00 Q1000 NOSIG
  • 220500Z AUTO 12007KT CAVOK 04/00 Q1001 NOSIG

TAF TAF LFBP
Valide du 22 à 06h jusqu'au 23 à 06h UTC


220500Z 2206/2306 11008KT CAVOK
PROB40
TEMPO 2212/2218 18015G25KT -RA BKN075
BECMG 2304/2306 26012KT RA BKN050



MET'MAP, la Météo Aéronautique d'un coup d'oeil ! - Copyright ORBIFLY Décembre 2007 - Disclaimer

ORBIFLY MET'MAP TEAM :

Programmation & Développement : Alexandra Zaïnal
Conception & Développement : Baudouin d'Aumeries
Co-Programmation & Développement : Marc-Olivier Méhu
Soutien technique & logistique : Manuel Goepfert

Contact : metmap@orbifly.com




SOURCES & CREDITS :

   NOAA